Time;durP1;ratioP1;P1;durP2;ratioP2;P2;SDS_P1;SDS_P2;PMS_P1;PMS_P2;Temp;Humidity;BMP_temperature;BMP_pressure;BME280_temperature;BME280_humidity;BME280_pressure;Samples;Min_cycle;Max_cycle;Signal;HPM_P1;HPM_P2
2022/04/22 00:00:49;;;;;;;9.27;7.03;;;8.90;65.60;;;7.63;65.04;94776.47;4942452;28;20493;-66
2022/04/22 00:03:15;;;;;;;10.60;7.75;;;8.90;65.70;;;7.60;64.97;94777.69;4932534;28;20349;-67
2022/04/22 00:05:41;;;;;;;8.25;7.00;;;8.90;66.00;;;7.57;65.12;94769.44;4918399;28;20365;-67
2022/04/22 00:08:07;;;;;;;10.07;7.05;;;8.90;66.10;;;7.52;65.28;94772.69;4942245;28;20350;-67
2022/04/22 00:10:33;;;;;;;9.38;7.28;;;8.80;66.30;;;7.46;65.90;94763.00;4955753;28;20482;-67
2022/04/22 00:13:00;;;;;;;8.45;6.75;;;8.70;66.50;;;7.43;65.93;94760.00;4923944;28;20376;-66
2022/04/22 00:15:27;;;;;;;8.80;7.35;;;8.70;66.60;;;7.42;65.35;94758.38;4955723;28;20367;-67
2022/04/22 00:17:53;;;;;;;9.38;7.00;;;8.80;66.60;;;7.40;66.18;94763.00;4924308;28;20352;-67
2022/04/22 00:20:19;;;;;;;9.55;7.50;;;8.70;66.70;;;7.37;65.94;94756.38;4943338;28;20455;-67
2022/04/22 00:22:46;;;;;;;9.43;7.72;;;8.60;66.90;;;7.35;66.06;94751.34;4944691;28;20785;-67
2022/04/22 00:25:13;;;;;;;9.95;7.93;;;8.60;66.80;;;7.32;66.61;94749.13;4959902;28;20594;-67
2022/04/22 00:27:39;;;;;;;9.25;7.85;;;8.60;66.80;;;7.29;66.17;94741.69;4944748;28;20340;-67
2022/04/22 00:30:07;;;;;;;12.52;7.75;;;8.60;67.00;;;7.29;66.69;94743.50;4927339;28;20321;-67
2022/04/22 00:32:33;;;;;;;9.80;7.13;;;8.60;66.90;;;7.25;66.22;94740.50;4963600;28;20334;-67
2022/04/22 00:35:01;;;;;;;8.35;6.85;;;8.60;66.80;;;7.22;66.15;94735.66;4963956;28;20338;-66
2022/04/22 00:37:27;;;;;;;9.82;7.57;;;8.50;67.00;;;7.19;66.83;94735.25;4962144;28;20351;-67
2022/04/22 00:39:53;;;;;;;8.80;7.53;;;8.50;67.30;;;7.16;66.54;94736.47;4954076;28;20332;-67
2022/04/22 00:42:19;;;;;;;9.18;7.75;;;8.40;67.30;;;7.11;66.26;94727.63;4943677;28;20359;-67
2022/04/22 00:44:46;;;;;;;9.55;7.50;;;8.50;67.30;;;7.13;66.21;94731.63;4941817;28;20442;-67
2022/04/22 00:47:12;;;;;;;9.70;7.97;;;8.40;67.30;;;7.09;66.90;94725.19;4948767;28;20860;-67
2022/04/22 00:49:38;;;;;;;10.05;7.97;;;8.40;67.20;;;7.05;66.71;94716.16;4962041;28;20309;-66
2022/04/22 00:52:05;;;;;;;10.23;8.52;;;8.40;67.30;;;7.00;66.76;94716.72;4942329;28;20409;-68
2022/04/22 00:54:32;;;;;;;9.88;7.40;;;8.30;67.40;;;6.99;67.08;94709.09;4942155;28;20359;-67
2022/04/22 00:56:58;;;;;;;8.82;7.57;;;8.30;67.80;;;6.93;66.58;94705.47;4937646;28;20445;-66
2022/04/22 00:59:25;;;;;;;10.63;7.97;;;8.20;68.10;;;6.89;66.83;94706.88;4932310;28;21628;-66
2022/04/22 01:01:51;;;;;;;10.05;8.07;;;8.10;68.20;;;6.88;67.62;94707.09;4937335;28;20337;-68
2022/04/22 01:09:51;;;;;;;8.80;7.82;;;8.20;68.10;;;6.81;67.24;94693.22;4955762;28;20271;-67
2022/04/22 01:12:17;;;;;;;9.90;7.88;;;8.10;68.40;;;6.75;67.83;94693.00;4924431;28;20464;-66
2022/04/22 01:14:47;;;;;;;11.10;8.55;;;8.10;68.40;;;6.72;68.29;94687.38;4945378;28;20349;-67
2022/04/22 01:17:16;;;;;;;10.63;8.25;;;8.00;68.60;;;6.69;68.63;94682.53;4948281;28;20522;-67
2022/04/22 01:19:42;;;;;;;10.95;8.35;;;8.00;68.70;;;6.67;67.72;94684.56;4936902;28;20363;-68
2022/04/22 01:22:08;;;;;;;11.57;8.82;;;8.10;68.70;;;6.64;67.85;94674.50;4938091;28;20774;-66
2022/04/22 01:24:35;;;;;;;13.27;8.77;;;7.90;68.80;;;6.61;67.59;94675.72;4942185;28;20718;-67
2022/04/22 01:27:01;;;;;;;12.50;9.07;;;8.00;68.90;;;6.60;68.79;94679.31;4948057;28;20186;-67
2022/04/22 01:29:28;;;;;;;12.43;9.75;;;7.90;69.10;;;6.56;68.79;94672.88;4930715;28;20361;-67
2022/04/22 01:31:54;;;;;;;11.70;9.10;;;7.90;69.40;;;6.56;68.32;94670.25;4918049;28;20379;-67
2022/04/22 01:34:20;;;;;;;12.77;9.40;;;7.90;69.40;;;6.54;69.06;94674.06;4934037;28;20325;-67
2022/04/22 01:36:46;;;;;;;12.05;8.70;;;7.80;69.60;;;6.53;69.08;94672.47;4947117;28;20340;-67
2022/04/22 01:39:13;;;;;;;11.93;9.27;;;7.90;69.50;;;6.51;69.25;94664.84;4930144;28;20819;-68
2022/04/22 01:41:39;;;;;;;12.43;9.38;;;7.90;69.70;;;6.50;69.32;94668.44;4946799;28;20473;-67
2022/04/22 01:44:05;;;;;;;11.23;8.95;;;7.90;69.80;;;6.47;68.89;94658.41;4955948;23;20352;-65
2022/04/22 01:46:31;;;;;;;11.40;9.18;;;7.90;69.80;;;6.45;69.11;94656.00;4901350;28;20386;-64
2022/04/22 01:48:58;;;;;;;11.75;10.10;;;7.80;69.70;;;6.41;69.32;94659.19;4908977;28;20394;-64
2022/04/22 01:51:24;;;;;;;14.82;9.73;;;7.70;69.80;;;6.40;69.22;94649.75;4922079;28;20307;-64
2022/04/22 01:53:51;;;;;;;12.02;9.48;;;7.70;70.00;;;6.34;69.05;94642.72;4928664;28;20335;-64
2022/04/22 01:56:21;;;;;;;13.77;10.48;;;7.70;70.20;;;6.36;71.07;94645.94;4928741;28;20809;-63
2022/04/22 01:58:47;;;;;;;14.02;10.18;;;7.80;69.90;;;6.34;69.86;94642.72;4875672;28;20762;-64
2022/04/22 02:01:14;;;;;;;13.10;10.55;;;7.70;70.10;;;6.33;70.27;94641.09;4928807;28;20381;-64
2022/04/22 02:03:40;;;;;;;14.68;11.52;;;7.80;70.40;;;6.30;70.37;94638.88;4883231;28;20564;-64
2022/04/22 02:06:06;;;;;;;14.35;10.75;;;7.70;70.30;;;6.28;69.55;94639.06;4902047;28;20395;-64
2022/04/22 02:08:33;;;;;;;13.75;10.63;;;7.70;70.60;;;6.28;70.35;94638.28;4882579;28;20551;-64
2022/04/22 02:11:02;;;;;;;14.68;10.95;;;7.60;70.60;;;6.25;70.05;94628.22;4913689;28;20489;-64
2022/04/22 02:13:28;;;;;;;12.77;10.55;;;7.60;70.90;;;6.22;69.83;94633.84;4928055;28;20429;-65
2022/04/22 02:15:54;;;;;;;14.60;11.60;;;7.60;70.90;;;6.23;70.13;94630.25;4896488;28;20653;-65
2022/04/22 02:18:20;;;;;;;15.23;11.93;;;7.60;70.80;;;6.21;70.10;94627.03;4876882;28;20218;-65
2022/04/22 02:20:46;;;;;;;14.85;11.48;;;7.60;70.70;;;6.18;71.04;94628.22;4914637;28;20350;-65
2022/04/22 02:23:15;;;;;;;15.60;12.20;;;7.60;70.90;;;6.16;70.16;94629.44;4901416;28;20356;-65
2022/04/22 02:25:41;;;;;;;16.73;12.05;;;7.50;70.40;;;6.10;71.11;94626.59;4910355;28;20588;-64
2022/04/22 02:30:51;;;;;;;33.03;24.35;;;7.50;70.90;;;6.06;71.07;94630.59;4929560;28;20366;-65
2022/04/22 02:33:17;;;;;;;23.02;17.05;;;7.50;71.10;;;6.02;71.00;94618.94;4924511;28;20354;-63
2022/04/22 02:35:43;;;;;;;18.15;12.77;;;7.40;71.00;;;5.98;70.76;94609.91;4868653;28;20559;-62
2022/04/22 02:38:09;;;;;;;18.60;13.38;;;7.40;71.00;;;5.94;70.35;94611.31;4891655;28;20223;-62
2022/04/22 02:46:05;;;;;;;18.05;14.02;;;7.30;71.40;;;5.85;70.68;94607.22;4913496;28;20333;-62
2022/04/22 02:48:31;;;;;;;20.35;13.82;;;7.20;71.70;;;5.83;71.02;94609.22;4875614;28;20359;-62
2022/04/22 02:50:57;;;;;;;18.48;13.40;;;7.30;71.70;;;5.80;71.50;94609.63;4908228;28;20505;-62
2022/04/22 02:53:23;;;;;;;18.92;13.50;;;7.20;71.90;;;5.78;71.07;94609.81;4904408;28;20654;-63
2022/04/22 02:55:50;;;;;;;19.08;13.07;;;7.20;71.90;;;5.75;72.15;94604.19;4872744;28;20512;-62
2022/04/22 02:58:18;;;;;;;18.88;13.65;;;7.10;72.20;;;5.74;71.91;94602.56;4914360;28;20501;-63
2022/04/22 03:00:44;;;;;;;19.98;14.20;;;7.10;72.20;;;5.72;72.45;94596.75;4892166;28;20508;-62
2022/04/22 03:03:10;;;;;;;18.05;14.02;;;7.10;72.40;;;5.71;71.54;94595.16;4876354;28;20317;-62
2022/04/22 03:05:36;;;;;;;18.67;14.63;;;7.10;72.50;;;5.68;72.66;94596.34;4886327;28;20367;-62
2022/04/22 03:08:02;;;;;;;18.67;14.90;;;7.10;72.60;;;5.65;72.60;94594.09;4930016;28;20318;-62
2022/04/22 03:10:29;;;;;;;19.65;14.73;;;7.10;73.00;;;5.67;72.33;94593.94;4878729;28;20358;-62
2022/04/22 03:12:56;;;;;;;26.63;19.55;;;7.10;72.90;;;5.66;73.18;94593.13;4892548;28;20472;-62
2022/04/22 03:15:22;;;;;;;22.52;17.33;;;7.10;72.80;;;5.65;72.67;94588.88;4907947;28;20351;-63
2022/04/22 03:17:49;;;;;;;25.25;17.98;;;7.10;72.70;;;5.64;73.36;94589.09;4877388;28;20508;-63
2022/04/22 03:20:15;;;;;;;22.00;15.77;;;7.20;72.70;;;5.61;72.39;94586.88;4903212;28;20433;-62
2022/04/22 03:22:41;;;;;;;20.52;14.65;;;7.10;72.70;;;5.60;73.50;94587.88;4880562;28;20288;-62
2022/04/22 03:25:08;;;;;;;19.00;14.85;;;7.10;72.70;;;5.60;72.60;94590.47;4883745;28;20355;-63
2022/04/22 03:27:34;;;;;;;19.00;14.18;;;7.10;72.70;;;5.58;73.22;94584.66;4909933;28;20791;-63
2022/04/22 03:30:02;;;;;;;21.50;17.02;;;7.10;72.80;;;5.56;73.73;94582.25;4904346;28;20326;-64
2022/04/22 03:32:29;;;;;;;23.23;17.75;;;7.10;72.80;;;5.56;73.76;94587.47;4904910;28;20421;-64
2022/04/22 03:34:55;;;;;;;25.05;18.90;;;7.10;72.80;;;5.56;72.84;94576.22;4903838;28;20723;-64
2022/04/22 03:37:21;;;;;;;20.48;15.88;;;7.10;72.70;;;5.53;72.92;94583.44;4904231;28;20361;-64
2022/04/22 03:39:47;;;;;;;19.70;14.23;;;7.10;72.50;;;5.51;73.68;94572.41;4923415;28;20502;-64
2022/04/22 03:42:13;;;;;;;20.42;14.98;;;7.10;72.40;;;5.49;72.85;94574.41;4913452;28;20618;-64
2022/04/22 03:44:39;;;;;;;18.05;14.68;;;7.00;72.60;;;5.47;72.84;94579.00;4906091;28;20865;-66
2022/04/22 03:47:07;;;;;;;23.05;14.40;;;7.00;72.40;;;5.46;72.68;94577.41;4904014;28;20364;-65
2022/04/22 03:49:33;;;;;;;19.10;14.15;;;7.00;72.30;;;5.44;73.38;94563.75;4939852;28;20506;-64
2022/04/22 03:51:59;;;;;;;18.27;14.90;;;7.00;72.30;;;5.43;73.49;94562.16;4907253;28;20773;-64
2022/04/22 03:54:26;;;;;;;19.33;14.70;;;6.90;72.30;;;5.41;73.66;94561.50;4881438;28;20406;-65
2022/04/22 03:59:36;;;;;;;18.90;14.20;;;6.90;72.10;;;5.35;73.01;94559.69;4913476;28;20401;-65
2022/04/22 04:02:03;;;;;;;18.50;14.18;;;6.90;72.40;;;5.35;73.04;94557.09;4939437;28;20499;-65
2022/04/22 04:04:29;;;;;;;20.40;15.45;;;6.90;72.60;;;5.29;73.25;94550.03;4894886;28;20061;-65
2022/04/22 04:06:55;;;;;;;19.08;14.75;;;6.80;72.80;;;5.31;74.13;94548.03;4923289;28;20207;-64
2022/04/22 04:17:38;;;;;;;19.05;15.85;;;6.70;73.80;;;5.22;73.89;94541.41;4933105;28;20422;-64
2022/04/22 04:25:34;;;;;;;21.92;16.15;;;6.80;74.00;;;5.20;74.17;94539.00;4935303;28;20370;-64
2022/04/22 04:28:02;;;;;;;21.42;16.45;;;6.80;73.90;;;5.20;75.19;94535.56;4907517;28;20207;-64
2022/04/22 04:30:28;;;;;;;23.40;16.85;;;6.80;74.00;;;5.21;74.53;94531.97;4893717;28;20346;-64
2022/04/22 04:32:55;;;;;;;23.10;16.55;;;6.80;74.00;;;5.21;75.26;94531.97;4894014;28;20355;-64
2022/04/22 04:35:21;;;;;;;21.42;16.25;;;6.80;74.00;;;5.22;75.40;94528.38;4908437;28;20347;-64
2022/04/22 04:37:46;;;;;;;23.20;17.20;;;6.80;74.10;;;5.23;75.74;94532.59;4895872;28;20419;-64
2022/04/22 04:40:13;;;;;;;19.98;16.40;;;6.80;74.10;;;5.23;75.52;94537.78;4930025;28;20552;-64
2022/04/22 04:42:41;;;;;;;21.33;16.25;;;6.80;74.10;;;5.26;75.22;94545.22;4890474;28;20597;-64
2022/04/22 04:45:08;;;;;;;21.95;17.08;;;6.90;74.10;;;5.24;75.91;94547.22;4925778;28;20573;-64
2022/04/22 04:47:41;;;;;;;23.35;17.88;;;7.00;74.00;;;5.30;77.00;94541.22;4916652;28;20341;-64
2022/04/22 04:50:08;;;;;;;23.30;17.17;;;7.00;73.90;;;5.31;75.26;94548.03;4875649;28;20750;-64
2022/04/22 04:52:36;;;;;;;23.60;17.70;;;7.00;73.80;;;5.31;76.19;94553.25;4907746;28;20303;-63
2022/04/22 04:55:05;;;;;;;22.98;17.50;;;7.10;73.80;;;5.35;76.69;94551.88;4939998;28;20400;-63
2022/04/22 04:57:31;;;;;;;23.52;18.38;;;7.10;73.80;;;5.39;75.91;94560.91;4890208;28;20307;-63
2022/04/22 04:59:57;;;;;;;22.25;17.38;;;7.10;73.90;;;5.43;76.61;94562.16;4870333;28;20467;-63
2022/04/22 05:02:23;;;;;;;22.70;17.92;;;7.20;74.00;;;5.47;75.79;94555.53;4905189;28;20387;-63
2022/04/22 05:04:49;;;;;;;24.48;18.08;;;7.30;73.90;;;5.56;77.08;94565.78;4905909;28;20377;-63
2022/04/22 05:07:16;;;;;;;22.27;17.73;;;7.50;73.80;;;5.63;76.86;94553.56;4909751;28;20444;-63
2022/04/22 05:09:42;;;;;;;21.42;17.52;;;7.50;73.90;;;5.70;77.42;94557.03;4924191;28;20303;-63
2022/04/22 05:12:10;;;;;;;23.08;18.42;;;7.60;73.80;;;5.77;76.94;94560.44;4906621;28;20461;-63
2022/04/22 05:14:36;;;;;;;25.25;18.90;;;7.70;73.90;;;5.86;77.00;94554.03;4897687;28;20808;-63
2022/04/22 05:17:03;;;;;;;24.40;19.05;;;7.90;73.90;;;5.96;77.68;94557.09;4924616;28;20437;-63
2022/04/22 05:19:29;;;;;;;24.17;18.10;;;8.00;73.60;;;6.05;77.28;94563.72;4938456;28;20465;-64
2022/04/22 05:21:57;;;;;;;24.45;18.45;;;8.20;73.40;;;6.16;76.93;94557.13;4921906;28;20363;-65
2022/04/22 05:24:24;;;;;;;23.13;18.77;;;8.30;73.10;;;6.29;78.02;94559.75;4889054;28;20483;-61
2022/04/22 05:26:50;;;;;;;23.40;18.38;;;8.50;72.60;;;6.42;77.26;94559.75;4897239;28;20384;-64
2022/04/22 05:34:48;;;;;;;23.67;18.45;;;9.00;72.00;;;6.87;77.37;94552.09;4904633;28;20373;-64
2022/04/22 05:37:15;;;;;;;21.52;17.92;;;9.10;71.20;;;7.03;77.16;94549.06;4873036;28;20200;-63
2022/04/22 05:39:43;;;;;;;23.45;18.17;;;9.30;71.20;;;7.17;77.36;94546.38;4889337;28;20694;-63
2022/04/22 05:42:10;;;;;;;23.52;18.45;;;9.50;70.90;;;7.30;77.10;94549.78;4899255;28;20602;-63
2022/04/22 05:44:36;;;;;;;23.10;18.23;;;9.60;70.20;;;7.42;76.52;94547.31;4896439;28;20679;-63
2022/04/22 05:47:01;;;;;;;23.60;18.48;;;9.60;70.00;;;7.54;76.40;94542.25;4934852;28;20687;-63
2022/04/22 05:49:28;;;;;;;20.23;17.52;;;9.80;69.90;;;7.68;76.52;94541.16;4905402;28;20381;-65
2022/04/22 05:51:54;;;;;;;18.38;16.50;;;10.10;69.10;;;7.82;76.04;94547.94;4925325;28;20323;-63
2022/04/22 05:54:20;;;;;;;20.27;16.13;;;10.10;68.50;;;7.95;75.69;94547.88;4898158;28;20180;-65
2022/04/22 05:56:46;;;;;;;18.35;16.45;;;10.30;68.10;;;8.06;75.79;94538.53;4881536;28;20359;-64
2022/04/22 05:59:13;;;;;;;20.23;16.33;;;10.40;67.50;;;8.17;75.05;94540.47;4912756;28;20697;-63
2022/04/22 06:01:39;;;;;;;19.58;17.35;;;10.40;67.60;;;8.26;74.79;94539.19;4892571;28;20418;-63
2022/04/22 06:04:05;;;;;;;21.30;17.38;;;10.50;67.20;;;8.36;74.46;94533.50;4898145;28;20384;-64
2022/04/22 06:06:31;;;;;;;19.23;16.90;;;10.60;66.50;;;8.48;74.25;94534.44;4908551;28;20461;-65
2022/04/22 06:11:41;;;;;;;18.92;15.30;;;10.80;66.20;;;8.69;73.38;94532.44;4925426;28;20215;-63
2022/04/22 06:14:09;;;;;;;16.80;14.70;;;10.90;65.20;;;8.80;73.20;94531.72;4919281;28;20537;-62
2022/04/22 06:16:36;;;;;;;20.15;15.35;;;11.10;64.40;;;8.90;72.79;94529.44;4891378;28;20345;-64
2022/04/22 06:19:02;;;;;;;17.05;15.25;;;11.20;64.20;;;9.01;72.18;94531.31;4915442;28;20455;-62
2022/04/22 06:21:31;;;;;;;15.25;13.65;;;11.30;64.50;;;9.10;71.27;94530.03;4894313;28;20417;-63
2022/04/22 06:23:57;;;;;;;14.70;13.10;;;11.50;62.80;;;9.21;70.90;94531.13;4896943;28;20357;-63
2022/04/22 06:26:23;;;;;;;14.80;13.20;;;11.70;62.10;;;9.35;70.37;94534.41;4911247;28;20337;-63
2022/04/22 06:28:52;;;;;;;14.95;13.35;;;11.90;61.40;;;9.48;70.50;94536.84;4909575;28;20395;-63
2022/04/22 06:31:19;;;;;;;14.07;12.27;;;12.00;60.80;;;9.58;69.78;94526.66;4892944;28;20320;-66
2022/04/22 06:33:45;;;;;;;15.82;12.27;;;12.10;59.70;;;9.68;68.63;94526.91;4891764;28;20367;-62
2022/04/22 06:36:13;;;;;;;13.48;12.10;;;12.10;59.30;;;9.80;67.33;94527.78;4890771;28;20366;-62
2022/04/22 06:38:40;;;;;;;13.40;12.00;;;12.30;58.50;;;9.94;67.61;94535.47;4906864;28;20339;-64
2022/04/22 06:46:36;;;;;;;12.70;11.35;;;13.10;57.20;;;10.48;65.04;94524.00;4925638;28;20351;-63
2022/04/22 06:49:03;;;;;;;14.88;12.20;;;13.10;55.70;;;10.63;65.98;94518.28;4934594;28;20325;-64
2022/04/22 06:51:29;;;;;;;12.00;10.70;;;13.30;55.60;;;10.80;64.94;94521.03;4939358;28;20330;-64
2022/04/22 06:53:56;;;;;;;14.90;11.40;;;13.40;55.00;;;10.89;64.28;94523.13;4953213;28;20351;-67
2022/04/22 06:56:26;;;;;;;11.40;10.27;;;13.50;54.50;;;11.00;63.41;94518.88;4924793;28;20501;-63
2022/04/22 06:58:52;;;;;;;13.18;10.88;;;13.40;54.40;;;11.05;63.06;94522.41;4908893;28;20431;-65
2022/04/22 07:01:19;;;;;;;11.23;10.02;;;13.40;54.00;;;11.13;61.88;94515.22;4914829;28;20307;-64
2022/04/22 07:03:46;;;;;;;11.02;9.57;;;13.60;53.40;;;11.19;62.70;94522.97;4898546;28;20654;-65
2022/04/22 07:06:12;;;;;;;11.05;9.90;;;13.60;52.90;;;11.29;60.99;94512.66;4910195;28;20660;-64
2022/04/22 07:08:40;;;;;;;11.25;10.05;;;13.70;52.80;;;11.37;61.70;94514.13;4876435;28;20310;-62
2022/04/22 07:11:06;;;;;;;11.52;9.27;;;13.80;53.00;;;11.47;60.72;94514.34;4908427;28;20453;-65
2022/04/22 07:13:33;;;;;;;10.25;9.15;;;13.90;52.20;;;11.51;61.25;94510.19;4871662;28;20341;-65
2022/04/22 07:15:59;;;;;;;9.80;8.80;;;13.90;52.40;;;11.57;59.91;94509.28;4883359;28;20366;-63
2022/04/22 07:18:26;;;;;;;10.73;9.63;;;13.90;51.30;;;11.58;60.01;94515.34;4887132;28;20493;-65
2022/04/22 07:20:52;;;;;;;13.68;9.80;;;14.00;51.60;;;11.65;60.21;94508.91;4957075;28;20713;-63
2022/04/22 07:23:23;;;;;;;13.27;8.95;;;14.10;51.40;;;11.73;59.21;94509.56;4922892;28;20909;-65
2022/04/22 07:25:50;;;;;;;9.85;8.82;;;14.10;51.00;;;11.79;58.43;94500.78;4903011;28;20316;-65
2022/04/22 07:28:16;;;;;;;10.95;9.75;;;14.20;50.00;;;11.85;58.58;94510.34;4926002;28;20325;-64
2022/04/22 07:30:46;;;;;;;10.02;8.88;;;14.30;50.10;;;11.96;58.73;94506.84;4898361;28;20548;-67
2022/04/22 07:33:12;;;;;;;10.52;9.07;;;14.60;49.80;;;12.05;58.30;94500.19;4901384;28;20378;-65
2022/04/22 07:35:39;;;;;;;14.02;10.15;;;14.60;49.90;;;12.14;57.91;94498.75;4869355;28;20537;-65
2022/04/22 07:38:06;;;;;;;17.55;10.95;;;14.60;49.70;;;12.19;57.70;94501.47;4923583;28;20203;-65
2022/04/22 07:40:32;;;;;;;25.73;12.60;;;14.70;49.40;;;12.30;57.24;94497.19;4891662;28;20390;-64
2022/04/22 07:48:28;;;;;;;10.75;9.15;;;15.30;47.30;;;12.62;56.82;94489.50;4909290;28;20946;-63
2022/04/22 07:50:54;;;;;;;10.07;8.70;;;15.30;47.90;;;12.71;56.75;94488.09;4888639;28;20711;-63
2022/04/22 07:53:21;;;;;;;10.05;9.05;;;15.30;48.20;;;12.84;56.24;94492.22;4920346;28;20415;-66
2022/04/22 07:55:48;;;;;;;10.00;8.88;;;15.50;47.80;;;12.96;55.32;94490.28;4905541;28;20580;-63
2022/04/22 07:58:15;;;;;;;10.15;8.65;;;15.70;46.90;;;13.03;55.18;94492.75;4903673;28;20378;-64
2022/04/22 08:00:44;;;;;;;11.48;8.30;;;15.60;46.30;;;13.01;54.64;94492.19;4872492;28;20311;-64
2022/04/22 08:03:11;;;;;;;10.38;8.43;;;15.50;45.80;;;13.07;54.59;94480.66;4870847;28;20371;-63
2022/04/22 08:05:38;;;;;;;9.27;8.23;;;15.70;46.50;;;13.18;54.13;94482.44;4883034;28;20418;-64
2022/04/22 08:08:05;;;;;;;9.38;8.43;;;15.90;45.80;;;13.27;54.54;94482.78;4936438;28;20587;-65
2022/04/22 08:10:34;;;;;;;9.32;8.32;;;16.00;46.20;;;13.34;53.95;94480.75;4918573;28;20626;-67
2022/04/22 08:13:00;;;;;;;9.80;8.02;;;16.20;45.20;;;13.51;53.76;94486.78;4903619;28;20536;-65
2022/04/22 08:15:27;;;;;;;12.45;7.95;;;16.30;44.90;;;13.61;54.53;94478.19;4937840;28;20369;-63
2022/04/22 08:17:53;;;;;;;9.00;8.15;;;16.30;45.40;;;13.54;52.69;94478.38;4899040;28;20341;-65
2022/04/22 08:20:18;;;;;;;9.77;8.48;;;16.00;45.00;;;13.54;53.36;94481.00;4873216;28;20391;-65
2022/04/22 08:22:45;;;;;;;11.27;9.20;;;16.10;44.60;;;13.62;53.14;94479.78;4887823;28;20315;-64
2022/04/22 08:25:12;;;;;;;9.27;8.25;;;16.30;44.60;;;13.70;52.64;94480.16;4869103;28;20386;-64
2022/04/22 08:27:39;;;;;;;11.43;9.30;;;16.40;44.40;;;13.85;51.32;94482.16;4883483;28;20519;-62
2022/04/22 08:30:06;;;;;;;11.40;10.20;;;16.80;43.70;;;14.07;52.42;94482.13;4886619;28;20530;-65
2022/04/22 08:32:32;;;;;;;10.73;8.35;;;17.30;43.20;;;14.34;51.42;94480.25;4874345;28;20300;-65
2022/04/22 08:34:58;;;;;;;9.80;7.97;;;17.60;42.40;;;14.50;50.90;94480.41;4916009;28;20382;-65
2022/04/22 08:37:24;;;;;;;10.30;9.13;;;17.40;41.80;;;14.60;50.74;94481.28;4871288;28;20215;-64
2022/04/22 08:39:50;;;;;;;10.32;8.95;;;17.70;41.30;;;14.84;50.76;94483.56;4879272;28;20408;-65
2022/04/22 08:42:16;;;;;;;10.13;8.40;;;18.30;41.10;;;15.15;48.96;94474.75;4921422;28;20364;-64
2022/04/22 08:44:42;;;;;;;9.45;8.07;;;18.50;39.70;;;15.41;50.32;94477.53;4873584;28;20351;-63
2022/04/22 08:49:59;;;;;;;11.02;8.10;;;19.00;38.90;;;15.82;48.42;94474.00;4904647;28;20719;-63
2022/04/22 08:52:26;;;;;;;9.48;8.48;;;19.10;38.30;;;15.90;48.28;94478.81;4886045;28;20442;-64
2022/04/22 08:54:55;;;;;;;9.88;8.88;;;19.00;39.00;;;16.01;45.94;94470.84;4884657;28;20037;-65
2022/04/22 08:57:21;;;;;;;9.55;8.55;;;19.30;38.20;;;16.22;47.69;94469.84;4901224;28;20037;-64
2022/04/22 08:59:48;;;;;;;10.15;8.57;;;19.70;38.00;;;16.49;47.41;94470.38;4886957;28;20321;-66
2022/04/22 09:02:20;;;;;;;9.13;8.05;;;20.20;37.60;;;16.76;45.16;94466.72;4916450;28;20299;-65
2022/04/22 09:04:46;;;;;;;10.07;7.95;;;20.20;37.20;;;16.96;46.08;94469.31;4920999;28;20463;-66
2022/04/22 09:07:18;;;;;;;10.77;8.13;;;20.40;37.20;;;17.08;45.07;94467.19;4889482;28;20358;-64
2022/04/22 09:09:49;;;;;;;10.38;8.10;;;20.30;36.70;;;17.08;45.19;94459.22;4915554;28;20367;-64
2022/04/22 09:12:21;;;;;;;9.13;8.05;;;20.10;37.10;;;17.19;45.09;94459.97;4903167;28;20513;-67
2022/04/22 09:14:56;;;;;;;8.45;7.65;;;20.40;36.90;;;17.48;44.00;94459.38;4890648;28;20569;-66
2022/04/22 09:17:42;;;;;;;10.27;8.68;;;21.30;36.10;;;17.80;43.12;94456.31;4907501;28;20511;-68
2022/04/22 09:20:13;;;;;;;11.20;8.38;;;21.50;34.80;;;17.92;43.61;94462.13;4907988;28;20505;-67
2022/04/22 09:22:39;;;;;;;8.57;7.70;;;21.60;35.00;;;18.12;44.14;94463.88;4892041;28;20302;-67
2022/04/22 09:25:05;;;;;;;9.55;8.38;;;22.00;34.40;;;18.39;43.22;94458.88;4940575;28;20314;-67
2022/04/22 09:27:36;;;;;;;9.20;8.30;;;22.30;34.00;;;18.68;41.86;94453.63;4925505;28;20457;-67
2022/04/22 09:30:10;;;;;;;10.57;8.73;;;22.40;34.60;;;18.88;41.29;94453.44;4893853;28;20431;-66
2022/04/22 09:32:39;;;;;;;15.55;8.25;;;22.60;33.50;;;18.96;42.16;94457.34;4909928;28;20358;-66
2022/04/22 09:35:15;;;;;;;11.88;8.40;;;22.50;33.50;;;18.97;40.24;94461.59;4894056;28;20634;-65
2022/04/22 09:43:35;;;;;;;9.43;8.30;;;22.90;33.80;;;19.43;41.26;94443.25;4909863;28;20302;-66
2022/04/22 09:46:02;;;;;;;10.77;8.15;;;23.00;33.10;;;19.63;40.56;94446.81;4877533;28;20496;-65
2022/04/22 09:48:40;;;;;;;9.52;8.30;;;23.40;32.90;;;19.73;39.68;94444.03;4893734;28;20806;-64
2022/04/22 09:51:06;;;;;;;8.73;7.68;;;23.30;32.20;;;19.86;40.67;94440.63;4897557;28;20703;-65
2022/04/22 09:53:33;;;;;;;11.20;8.00;;;23.80;32.20;;;20.11;39.21;94426.13;4909674;28;20331;-65
2022/04/22 09:56:06;;;;;;;8.85;7.95;;;24.30;29.90;;;20.45;38.88;94429.41;4876218;28;20324;-65
2022/04/22 09:58:33;;;;;;;8.95;8.05;;;25.10;30.80;;;20.88;39.13;94428.44;4923172;28;20453;-66
2022/04/22 10:01:01;;;;;;;9.15;7.65;;;26.10;29.40;;;21.26;39.23;94423.75;4908376;28;20391;-66
2022/04/22 10:03:29;;;;;;;8.85;7.95;;;26.30;29.10;;;21.51;38.42;94425.16;4923490;28;20621;-66
2022/04/22 10:05:55;;;;;;;9.82;7.70;;;26.50;28.50;;;21.71;38.04;94425.50;4897655;28;20299;-66
2022/04/22 10:08:22;;;;;;;10.90;7.93;;;26.70;26.80;;;21.92;37.64;94417.84;4874346;28;20344;-65
2022/04/22 10:10:48;;;;;;;7.97;7.18;;;27.10;27.30;;;22.14;37.40;94422.47;4903960;28;20603;-67
2022/04/22 10:13:17;;;;;;;27.67;14.82;;;26.60;27.80;;;22.15;36.61;94428.63;4873614;28;20493;-68
2022/04/22 10:15:45;;;;;;;14.30;9.57;;;26.00;27.80;;;22.13;36.30;94423.56;4924525;28;20675;-68
2022/04/22 10:18:13;;;;;;;13.88;9.63;;;26.10;28.70;;;22.24;35.50;94426.81;4923745;28;20248;-66
2022/04/22 10:20:40;;;;;;;36.05;18.55;;;26.60;27.00;;;22.39;36.05;94418.41;4888041;28;20427;-65
2022/04/22 10:23:06;;;;;;;10.70;8.50;;;27.20;27.80;;;22.58;35.86;94415.56;4887244;28;20471;-65
2022/04/22 10:25:33;;;;;;;9.27;8.02;;;27.40;25.90;;;22.59;35.52;94428.66;4920955;28;20348;-66
2022/04/22 10:28:08;;;;;;;11.95;8.43;;;27.00;26.70;;;22.69;33.61;94416.13;4935925;28;20417;-69
2022/04/22 10:30:35;;;;;;;8.80;6.75;;;27.50;25.90;;;22.83;34.72;94416.84;4889358;28;20331;-65
2022/04/22 10:33:02;;;;;;;8.43;6.97;;;27.80;25.70;;;22.99;34.12;94418.06;4914524;28;20691;-66
2022/04/22 10:35:29;;;;;;;10.23;9.23;;;28.20;24.70;;;23.40;33.83;94408.94;4879079;28;20573;-67
2022/04/22 10:37:55;;;;;;;9.43;7.68;;;29.20;24.60;;;23.76;33.46;94406.84;4910381;28;20351;-67
2022/04/22 10:40:23;;;;;;;8.82;6.90;;;29.60;22.80;;;24.11;33.33;94406.88;4897435;28;20317;-65
2022/04/22 10:42:50;;;;;;;7.82;7.00;;;30.10;22.80;;;24.47;32.70;94408.50;4923248;28;20285;-65
2022/04/22 10:48:33;;;;;;;10.57;6.78;;;30.90;22.50;;;25.30;30.57;94395.50;4910404;28;20254;-67
2022/04/22 10:51:01;;;;;;;8.15;6.38;;;31.20;22.50;;;25.44;31.74;94398.78;4901317;28;20656;-66
2022/04/22 10:53:29;;;;;;;7.78;6.40;;;31.10;21.90;;;25.70;31.11;94397.88;4920047;28;20809;-66
2022/04/22 10:56:27;;;;;;;9.48;6.70;;;31.30;21.50;;;25.80;29.37;94394.81;4900246;28;20510;-65
2022/04/22 10:59:20;;;;;;;7.57;6.38;;;31.40;21.60;;;26.03;28.47;94398.00;4932639;28;20390;-66
2022/04/22 11:01:47;;;;;;;7.82;6.50;;;31.60;20.90;;;26.21;31.19;94396.75;4919983;28;20530;-64
2022/04/22 11:04:20;;;;;;;7.55;6.50;;;31.70;21.60;;;26.46;28.82;94400.38;4903078;28;20383;-65
2022/04/22 11:06:46;;;;;;;8.52;6.60;;;32.40;21.10;;;26.66;30.63;94393.38;4923280;28;20202;-65
2022/04/22 11:09:32;;;;;;;7.15;6.43;;;32.50;20.90;;;26.96;28.21;94394.03;4875180;28;20560;-65
2022/04/22 11:11:59;;;;;;;6.75;6.15;;;33.00;20.70;;;26.94;29.51;94404.38;4871878;28;20355;-66
2022/04/22 11:14:29;;;;;;;7.13;6.18;;;32.30;21.10;;;26.85;28.50;94399.84;4909685;28;20770;-64
2022/04/22 11:16:55;;;;;;;;;;;32.00;20.80;;;26.81;27.99;94390.84;4908177;28;20323;-64
2022/04/22 11:19:22;;;;;;;9.98;5.95;;;32.40;20.70;;;27.06;29.62;94399.03;4917614;28;20163;-65